Church Street, Georgia
Current Conditions -  °F | °C
As of 5:52 AM on Friday 28 Nov 2014 (Local Time) from KATL Reporting Station
Clear Clear  
Wind Chill: 22°   Ceiling: Unl
Heat Index: 29°   Visibility: 10mi
Dew Point: 21°   Wind: 7mph
Humidity: 72%   Direction: 320°NW
Pressure: 30.35"   Gusts: NA
Location:  33.559°N, 84.4436°W
Report Text: KATL 281052Z 32006KT 10SM CLR M02/M06 A3035 RMK AO2 SLP287 T10171061
Loading
Personal Weather Stations






























Interactive Weather Map New forecast layout! Learn more

10-Day Weather Forecast

Advertisements
Track Severe Weather on mobile